createdAt,value
2024-04-22T00:01:32.413Z,100716.63
2024-04-22T00:03:59.652Z,100715.84
2024-04-22T00:06:29.458Z,100713.41
2024-04-22T00:08:58.641Z,100720.97
2024-04-22T00:11:28.184Z,100709.97
2024-04-22T00:13:55.643Z,100717.78
2024-04-22T00:16:25.425Z,100706.88
2024-04-22T00:18:55.147Z,100714.56
2024-04-22T00:21:26.874Z,100703.47
2024-04-22T00:23:54.336Z,100706.94
2024-04-22T00:26:24.712Z,100703.59
2024-04-22T00:28:52.379Z,100698.53
2024-04-22T00:31:21.992Z,100705.41
2024-04-22T00:33:51.108Z,100705.47
2024-04-22T00:36:24.083Z,100701.16
2024-04-22T00:38:51.319Z,100701.16
2024-04-22T00:41:20.928Z,100700.31
2024-04-22T00:43:48.079Z,100699.50
2024-04-22T00:46:18.476Z,100700.34
2024-04-22T00:48:45.644Z,100704.75
2024-04-22T00:51:16.310Z,100701.38
2024-04-22T00:53:48.908Z,100702.25
2024-04-22T00:56:19.817Z,100705.75
2024-04-22T00:58:49.113Z,100701.38
2024-04-22T01:01:19.536Z,100692.91
2024-04-22T01:03:47.039Z,100699.72
2024-04-22T01:06:16.838Z,100694.72
2024-04-22T01:08:47.023Z,100699.84
2024-04-22T01:11:17.187Z,100691.53
2024-04-22T01:13:44.625Z,100689.78
2024-04-22T01:16:14.673Z,100690.59
2024-04-22T01:18:43.383Z,100688.06
2024-04-22T01:21:13.534Z,100690.63
2024-04-22T01:23:45.516Z,100691.56
2024-04-22T01:26:16.084Z,100686.44
2024-04-22T01:28:43.323Z,100689.84
2024-04-22T01:31:14.189Z,100691.53
2024-04-22T01:33:41.184Z,100694.91
2024-04-22T01:36:11.766Z,100692.44
2024-04-22T01:38:38.825Z,100687.44
2024-04-22T01:41:11.583Z,100688.41
2024-04-22T01:43:38.610Z,100690.16
2024-04-22T01:46:08.659Z,100687.59
2024-04-22T01:48:35.937Z,100681.75
2024-04-22T01:51:05.610Z,100682.47
2024-04-22T01:53:32.550Z,100679.03
2024-04-22T01:56:02.946Z,100690.03
2024-04-22T01:58:32.808Z,100691.81
2024-04-22T02:01:07.789Z,100692.72
2024-04-22T02:03:35.028Z,100684.94
2024-04-22T02:06:04.745Z,100685.84
2024-04-22T02:08:33.574Z,100680.69
2024-04-22T02:11:04.144Z,100692.75
2024-04-22T02:13:34.176Z,100685.94
2024-04-22T02:16:04.883Z,100687.66
2024-04-22T02:18:32.782Z,100687.72
2024-04-22T02:21:02.883Z,100687.81
2024-04-22T02:23:29.934Z,100683.59
2024-04-22T02:25:59.605Z,100687.97
2024-04-22T02:28:28.141Z,100674.44
2024-04-22T02:31:00.742Z,100671.13
2024-04-22T02:33:28.239Z,100666.09
2024-04-22T02:35:58.004Z,100669.66
2024-04-22T02:38:26.255Z,100664.34
2024-04-22T02:40:55.881Z,100662.59
2024-04-22T02:43:22.955Z,100665.31
2024-04-22T02:45:52.657Z,100659.16
2024-04-22T02:48:22.684Z,100659.25
2024-04-22T02:50:52.627Z,100665.81
2024-04-22T02:53:19.714Z,100671.63
2024-04-22T02:55:49.662Z,100668.06
2024-04-22T02:58:16.784Z,100665.34
2024-04-22T03:00:51.792Z,100667.78
2024-04-22T03:03:24.375Z,100661.81
2024-04-22T03:05:54.141Z,100669.72
2024-04-22T03:08:21.941Z,100667.09
2024-04-22T03:10:51.508Z,100662.22
2024-04-22T03:13:18.719Z,100661.59
2024-04-22T03:15:48.359Z,100652.06
2024-04-22T03:18:15.749Z,100652.63
2024-04-22T03:20:48.476Z,100653.28
2024-04-22T03:23:15.721Z,100655.69
2024-04-22T03:25:46.347Z,100650.88
2024-04-22T03:28:13.481Z,100647.66
2024-04-22T03:30:43.189Z,100645.06
2024-04-22T03:33:11.161Z,100642.69
2024-04-22T03:35:40.855Z,100640.09
2024-04-22T03:38:13.214Z,100637.53
2024-04-22T03:40:43.085Z,100640.84
2024-04-22T03:43:14.330Z,100644.06
2024-04-22T03:45:41.547Z,100644.16
2024-04-22T03:48:26.942Z,100646.81
2024-04-22T03:50:59.009Z,100645.97
2024-04-22T03:53:32.529Z,100639.19
2024-04-22T03:56:02.387Z,100636.50
2024-04-22T03:58:32.005Z,100639.28
2024-04-22T04:00:59.412Z,100643.06
2024-04-22T04:03:29.221Z,100633.28
2024-04-22T04:05:56.431Z,100628.97
2024-04-22T04:08:26.355Z,100624.78
2024-04-22T04:11:01.315Z,100623.09
2024-04-22T04:13:31.323Z,100617.13
2024-04-22T04:15:58.272Z,100618.56
2024-04-22T04:18:27.973Z,100621.41
2024-04-22T04:20:55.293Z,100620.78
2024-04-22T04:23:25.097Z,100618.69
2024-04-22T04:25:52.271Z,100633.75
2024-04-22T04:28:26.318Z,100636.00
2024-04-22T04:30:56.646Z,100637.38
2024-04-22T04:33:26.662Z,100642.91
2024-04-22T04:36:01.212Z,100642.22
2024-04-22T04:38:31.588Z,100645.09
2024-04-22T04:41:03.295Z,100654.78
2024-04-22T04:43:36.098Z,100678.63
2024-04-22T04:46:03.683Z,100673.91
2024-04-22T04:48:33.529Z,100670.34
2024-04-22T04:51:02.449Z,100670.78
2024-04-22T04:53:32.808Z,100691.75
2024-04-22T04:56:00.285Z,100703.56
2024-04-22T04:58:30.044Z,100714.38
2024-04-22T05:00:59.766Z,100728.09
2024-04-22T05:03:29.806Z,100735.41
2024-04-22T05:05:58.396Z,100738.56
2024-04-22T05:08:28.257Z,100735.59
2024-04-22T05:10:58.438Z,100741.97
2024-04-22T05:13:28.269Z,100736.81
2024-04-22T05:15:55.232Z,100734.19
2024-04-22T05:18:27.491Z,100734.88
2024-04-22T05:20:54.572Z,100734.97
2024-04-22T05:23:27.215Z,100735.50
2024-04-22T05:25:54.736Z,100738.38
2024-04-22T05:28:28.682Z,100738.56
2024-04-22T05:30:56.021Z,100736.22
2024-04-22T05:33:44.391Z,100727.66
2024-04-22T05:36:16.060Z,100733.59
2024-04-22T05:38:46.539Z,100732.44
2024-04-22T05:41:16.327Z,100729.88
2024-04-22T05:43:46.175Z,100728.06
2024-04-22T05:46:15.959Z,100732.16
2024-04-22T05:48:48.075Z,100726.34
2024-04-22T05:51:17.901Z,100728.19
2024-04-22T05:53:47.476Z,100725.84
2024-04-22T05:56:14.521Z,100729.31
2024-04-22T05:58:44.855Z,100738.66
2024-04-22T06:01:11.923Z,100735.69
2024-04-22T06:03:41.725Z,100736.78
2024-04-22T06:06:11.491Z,100736.19
2024-04-22T06:08:40.884Z,100734.94
2024-04-22T06:11:08.018Z,100730.81
2024-04-22T06:13:38.031Z,100735.16
2024-04-22T06:16:05.657Z,100733.72
2024-04-22T06:18:35.591Z,100732.38
2024-04-22T06:21:02.439Z,100728.84
2024-04-22T06:23:34.633Z,100728.63
2024-04-22T06:26:02.946Z,100727.97
2024-04-22T06:28:32.521Z,100734.50
2024-04-22T06:30:59.806Z,100732.50
2024-04-22T06:33:29.577Z,100737.28
2024-04-22T06:35:57.157Z,100742.53
2024-04-22T06:38:31.758Z,100733.53
2024-04-22T06:41:01.465Z,100737.69
2024-04-22T06:43:31.225Z,100741.13
2024-04-22T06:45:58.202Z,100737.75
2024-04-22T06:48:28.249Z,100734.34
2024-04-22T06:50:57.367Z,100728.81
2024-04-22T06:53:28.623Z,100724.59
2024-04-22T06:55:55.816Z,100731.22
2024-04-22T06:58:28.434Z,100729.47
2024-04-22T07:00:55.469Z,100732.34
2024-04-22T07:03:25.214Z,100733.28
2024-04-22T07:05:52.260Z,100736.19
2024-04-22T07:08:22.858Z,100732.97
2024-04-22T07:10:49.906Z,100737.00
2024-04-22T07:13:19.431Z,100730.16
2024-04-22T07:15:49.411Z,100733.69
2024-04-22T07:18:18.960Z,100733.59
2024-04-22T07:20:46.518Z,100734.16
2024-04-22T07:23:16.077Z,100734.00
2024-04-22T07:25:43.146Z,100738.00
2024-04-22T07:28:14.256Z,100738.97
2024-04-22T07:30:41.947Z,100736.69
2024-04-22T07:33:15.199Z,100739.19
2024-04-22T07:35:49.040Z,100743.41
2024-04-22T07:38:24.466Z,100743.09
2024-04-22T07:40:52.370Z,100733.88
2024-04-22T07:43:21.997Z,100735.50
2024-04-22T07:45:49.807Z,100741.44
2024-04-22T07:48:22.332Z,100742.53
2024-04-22T07:50:49.979Z,100740.44
2024-04-22T07:53:20.200Z,100744.44
2024-04-22T07:55:47.710Z,100747.78
2024-04-22T07:58:17.964Z,100751.31
2024-04-22T08:00:46.307Z,100745.84
2024-04-22T08:03:17.038Z,100739.28
2024-04-22T08:05:47.992Z,100746.84
2024-04-22T08:08:22.489Z,100743.25
2024-04-22T08:10:50.875Z,100741.66
2024-04-22T08:13:20.486Z,100746.94
2024-04-22T08:15:49.329Z,100737.94
2024-04-22T08:18:19.050Z,100744.00
2024-04-22T08:20:51.336Z,100746.78
2024-04-22T08:23:25.095Z,100745.69
2024-04-22T08:25:52.934Z,100748.69
2024-04-22T08:28:24.342Z,100744.31
2024-04-22T08:30:51.431Z,100738.81
2024-04-22T08:33:21.310Z,100738.97
2024-04-22T08:35:50.942Z,100734.00
2024-04-22T08:38:20.607Z,100725.25
2024-04-22T08:40:47.704Z,100728.78
2024-04-22T08:43:17.445Z,100737.03
2024-04-22T08:45:46.110Z,100726.66
2024-04-22T08:48:15.754Z,100730.16
2024-04-22T08:50:43.123Z,100732.66
2024-04-22T08:53:15.858Z,100727.38
2024-04-22T08:55:43.143Z,100731.81
2024-04-22T08:58:13.620Z,100728.13
2024-04-22T09:00:40.887Z,100721.91
2024-04-22T09:03:10.498Z,100714.59
2024-04-22T09:05:37.905Z,100720.88
2024-04-22T09:08:10.342Z,100714.00
2024-04-22T09:11:11.774Z,100717.91
2024-04-22T09:13:31.333Z,100706.56
2024-04-22T09:15:58.518Z,100717.19
2024-04-22T09:18:30.243Z,100717.63
2024-04-22T09:21:07.642Z,100705.97
2024-04-22T09:23:38.232Z,100699.91
2024-04-22T09:26:09.457Z,100702.56
2024-04-22T09:28:40.996Z,100709.91
2024-04-22T09:31:10.323Z,100700.97
2024-04-22T09:33:40.620Z,100710.41
2024-04-22T09:36:10.529Z,100698.91
2024-04-22T09:38:47.242Z,100704.19
2024-04-22T09:41:20.595Z,100697.78
2024-04-22T09:43:58.851Z,100700.56
2024-04-22T09:46:31.363Z,100697.38
2024-04-22T09:49:02.113Z,100693.41
2024-04-22T09:51:32.009Z,100689.41
2024-04-22T09:54:05.578Z,100680.88
2024-04-22T09:56:38.364Z,100687.00
2024-04-22T09:59:09.604Z,100680.09
2024-04-22T10:01:37.086Z,100684.19
2024-04-22T10:04:07.320Z,100684.47
2024-04-22T10:06:35.766Z,100692.44
2024-04-22T10:09:06.298Z,100697.84
2024-04-22T10:11:38.201Z,100693.78
2024-04-22T10:14:13.466Z,100698.66
2024-04-22T10:16:41.107Z,100696.06
2024-04-22T10:19:12.030Z,100685.44
2024-04-22T10:21:42.674Z,100685.81
2024-04-22T10:24:12.674Z,100680.88
2024-04-22T10:26:56.255Z,100680.59
2024-04-22T10:29:30.973Z,100684.09
2024-04-22T10:31:57.868Z,100677.53
2024-04-22T10:34:27.514Z,100674.53
2024-04-22T10:36:56.159Z,100672.66
2024-04-22T10:39:28.601Z,100668.63
2024-04-22T10:41:58.919Z,100662.38
2024-04-22T10:44:29.701Z,100660.13
2024-04-22T10:46:57.932Z,100661.28
2024-04-22T10:49:31.111Z,100674.06
2024-04-22T10:51:58.368Z,100672.72
2024-04-22T10:54:28.720Z,100660.56
2024-04-22T10:56:59.897Z,100660.03
2024-04-22T10:59:29.890Z,100655.75
2024-04-22T11:01:57.607Z,100655.16
2024-04-22T11:04:27.774Z,100657.97
2024-04-22T11:06:55.121Z,100652.88
2024-04-22T11:09:25.496Z,100651.25
2024-04-22T11:11:54.982Z,100639.66
2024-04-22T11:14:32.142Z,100637.84
2024-04-22T11:16:59.843Z,100648.44
2024-04-22T11:19:31.061Z,100646.94
2024-04-22T11:22:01.473Z,100643.00
2024-04-22T11:24:31.248Z,100647.91
2024-04-22T11:27:00.332Z,100637.63
2024-04-22T11:29:33.031Z,100640.50
2024-04-22T11:32:02.128Z,100641.81
2024-04-22T11:34:33.371Z,100645.03
2024-04-22T11:37:02.904Z,100643.97
2024-04-22T11:39:35.176Z,100645.75
2024-04-22T11:42:02.691Z,100647.66
2024-04-22T11:44:34.973Z,100655.13
2024-04-22T11:47:02.128Z,100658.66
2024-04-22T11:49:31.852Z,100661.22
2024-04-22T11:51:58.776Z,100650.66
2024-04-22T11:54:28.522Z,100646.44
2024-04-22T11:56:55.575Z,100640.91
2024-04-22T11:59:25.095Z,100642.06
2024-04-22T12:01:55.003Z,100631.72
2024-04-22T12:04:26.893Z,100627.31
2024-04-22T12:06:54.145Z,100631.56
2024-04-22T12:09:24.134Z,100621.75
2024-04-22T12:11:51.470Z,100622.56
2024-04-22T12:14:21.091Z,100620.09
2024-04-22T12:16:50.196Z,100625.41
2024-04-22T12:19:22.577Z,100615.78
2024-04-22T12:21:52.078Z,100620.28
2024-04-22T12:24:21.921Z,100628.53
2024-04-22T12:26:49.011Z,100609.00
2024-04-22T12:29:18.747Z,100615.63
2024-04-22T12:31:46.223Z,100622.25
2024-04-22T12:34:16.144Z,100625.16
2024-04-22T12:36:46.128Z,100616.38
2024-04-22T12:39:15.774Z,100615.97
2024-04-22T12:41:44.194Z,100620.47
2024-04-22T12:44:13.965Z,100617.09
2024-04-22T12:47:02.556Z,100614.94
2024-04-22T12:49:51.063Z,100598.41
2024-04-22T12:52:25.569Z,100598.16
2024-04-22T12:54:55.492Z,100594.78
2024-04-22T12:57:25.257Z,100593.22
2024-04-22T12:59:58.523Z,100589.03
2024-04-22T13:02:28.808Z,100589.38
2024-04-22T13:04:56.094Z,100580.94
2024-04-22T13:07:28.648Z,100578.66
2024-04-22T13:09:58.345Z,100572.75
2024-04-22T13:12:28.126Z,100583.88
2024-04-22T13:14:58.045Z,100576.34
2024-04-22T13:17:27.921Z,100593.81
2024-04-22T13:19:57.712Z,100596.38
2024-04-22T13:22:27.710Z,100586.81
2024-04-22T13:24:57.283Z,100586.00
2024-04-22T13:27:24.338Z,100581.22
2024-04-22T13:29:53.959Z,100595.63
2024-04-22T13:32:27.251Z,100577.16
2024-04-22T13:34:56.876Z,100570.56
2024-04-22T13:37:28.020Z,100581.72
2024-04-22T13:39:59.742Z,100578.97
2024-04-22T13:42:31.328Z,100575.81
2024-04-22T13:45:06.753Z,100569.50
2024-04-22T13:47:34.584Z,100564.81
2024-04-22T13:50:06.544Z,100551.53
2024-04-22T13:52:37.872Z,100553.59
2024-04-22T13:55:09.324Z,100557.31
2024-04-22T13:57:40.199Z,100551.91
2024-04-22T14:00:11.180Z,100547.38
2024-04-22T14:02:43.724Z,100525.28
2024-04-22T14:05:10.777Z,100531.91
2024-04-22T14:07:44.708Z,100513.31
2024-04-22T14:10:11.834Z,100516.31
2024-04-22T14:12:43.791Z,100516.44
2024-04-22T14:15:11.240Z,100520.66
2024-04-22T14:17:41.726Z,100517.91
2024-04-22T14:20:09.676Z,100521.84
2024-04-22T14:22:41.830Z,100520.38
2024-04-22T14:25:11.813Z,100524.06
2024-04-22T14:27:41.453Z,100515.94
2024-04-22T14:30:10.422Z,100517.91
2024-04-22T14:32:40.008Z,100511.28
2024-04-22T14:35:08.768Z,100513.56
2024-04-22T14:37:38.581Z,100510.63
2024-04-22T14:40:06.617Z,100511.75
2024-04-22T14:42:38.920Z,100510.41
2024-04-22T14:45:06.478Z,100516.16
2024-04-22T14:47:37.134Z,100511.09
2024-04-22T14:50:04.909Z,100507.41
2024-04-22T14:52:34.558Z,100501.25
2024-04-22T14:55:01.440Z,100493.94
2024-04-22T14:57:31.343Z,100498.66
2024-04-22T15:00:04.654Z,100500.28
2024-04-22T15:02:34.249Z,100499.88
2024-04-22T15:05:03.494Z,100497.16
2024-04-22T15:07:34.911Z,100490.38
2024-04-22T15:10:01.963Z,100492.66
2024-04-22T15:12:31.972Z,100495.31
2024-04-22T15:15:02.032Z,100482.28
2024-04-22T15:17:32.235Z,100485.31
2024-04-22T15:20:00.755Z,100478.91
2024-04-22T15:22:30.820Z,100483.91
2024-04-22T15:24:58.429Z,100480.22
2024-04-22T15:27:29.450Z,100481.44
2024-04-22T15:29:57.164Z,100477.25
2024-04-22T15:32:30.146Z,100484.16
2024-04-22T15:34:58.706Z,100472.16
2024-04-22T15:37:28.916Z,100471.19
2024-04-22T15:39:56.544Z,100467.47
2024-04-22T15:42:27.954Z,100471.03
2024-04-22T15:44:55.394Z,100470.09
2024-04-22T15:47:25.955Z,100461.50
2024-04-22T15:49:57.013Z,100468.63
2024-04-22T15:52:26.986Z,100459.69
2024-04-22T15:54:54.301Z,100461.75
2024-04-22T15:57:24.286Z,100460.16
2024-04-22T16:00:01.806Z,100456.94
2024-04-22T16:02:39.262Z,100440.44
2024-04-22T16:05:09.396Z,100441.56
2024-04-22T16:07:39.258Z,100453.53
2024-04-22T16:10:07.555Z,100450.59
2024-04-22T16:12:39.072Z,100445.41
2024-04-22T16:15:06.768Z,100452.75
2024-04-22T16:17:36.902Z,100444.81
2024-04-22T16:20:04.781Z,100451.38
2024-04-22T16:22:40.269Z,100450.75
2024-04-22T16:25:07.534Z,100449.75
2024-04-22T16:27:37.378Z,100445.47
2024-04-22T16:30:05.364Z,100448.03
2024-04-22T16:32:35.173Z,100449.91
2024-04-22T16:35:02.447Z,100442.44
2024-04-22T16:37:32.398Z,100440.44
2024-04-22T16:40:02.731Z,100438.16
2024-04-22T16:42:35.723Z,100442.09
2024-04-22T16:45:03.241Z,100438.84
2024-04-22T16:47:33.386Z,100441.63
2024-04-22T16:50:02.670Z,100438.13
2024-04-22T16:52:33.087Z,100440.97
2024-04-22T16:55:04.791Z,100435.28
2024-04-22T16:57:34.522Z,100435.81
2024-04-22T17:00:01.990Z,100436.72
2024-04-22T17:02:32.545Z,100438.69
2024-04-22T17:05:03.295Z,100443.75
2024-04-22T17:07:34.196Z,100440.84
2024-04-22T17:10:08.000Z,100443.00
2024-04-22T17:12:37.932Z,100448.56
2024-04-22T17:15:06.064Z,100452.78
2024-04-22T17:17:37.400Z,100457.97
2024-04-22T17:20:06.129Z,100453.94
2024-04-22T17:22:36.766Z,100452.53
2024-04-22T17:25:10.049Z,100458.00
2024-04-22T17:27:39.790Z,100449.38
2024-04-22T17:30:08.276Z,100454.59
2024-04-22T17:32:38.143Z,100459.88
2024-04-22T17:35:06.873Z,100467.75
2024-04-22T17:37:36.874Z,100470.97
2024-04-22T17:40:10.351Z,100469.63
2024-04-22T17:42:41.080Z,100477.13
2024-04-22T17:45:10.284Z,100473.03
2024-04-22T17:47:40.036Z,100472.16
2024-04-22T17:50:07.259Z,100470.69
2024-04-22T17:52:37.403Z,100474.59
2024-04-22T17:55:05.009Z,100476.19
2024-04-22T17:57:37.969Z,100471.22
2024-04-22T18:00:06.183Z,100474.66
2024-04-22T18:02:38.054Z,100475.88
2024-04-22T18:05:06.740Z,100472.72
2024-04-22T18:07:36.553Z,100474.09
2024-04-22T18:10:04.074Z,100473.59
2024-04-22T18:12:33.923Z,100474.00
2024-04-22T18:15:04.190Z,100474.38
2024-04-22T18:17:34.325Z,100477.88
2024-04-22T18:20:01.978Z,100465.19
2024-04-22T18:22:40.846Z,100462.53
2024-04-22T18:25:11.832Z,100469.34
2024-04-22T18:27:41.902Z,100466.13
2024-04-22T18:30:12.254Z,100466.63
2024-04-22T18:32:42.118Z,100471.94
2024-04-22T18:35:09.567Z,100472.66
2024-04-22T18:37:39.713Z,100462.66
2024-04-22T18:40:08.346Z,100465.56
2024-04-22T18:42:38.231Z,100459.75
2024-04-22T18:45:07.824Z,100462.69
2024-04-22T18:47:40.490Z,100455.63
2024-04-22T18:50:08.819Z,100457.13
2024-04-22T18:52:38.606Z,100465.69
2024-04-22T18:55:06.805Z,100472.97
2024-04-22T18:57:36.559Z,100461.97
2024-04-22T19:00:05.014Z,100467.19
2024-04-22T19:02:34.905Z,100467.94
2024-04-22T19:05:05.308Z,100465.59
2024-04-22T19:07:36.704Z,100467.84
2024-04-22T19:10:07.334Z,100466.94
2024-04-22T19:12:36.985Z,100466.25
2024-04-22T19:15:04.742Z,100461.09
2024-04-22T19:17:38.592Z,100465.06
2024-04-22T19:20:09.821Z,100467.16
2024-04-22T19:22:40.079Z,100476.00
2024-04-22T19:25:09.294Z,100476.34
2024-04-22T19:27:39.343Z,100475.78
2024-04-22T19:30:07.667Z,100468.38
2024-04-22T19:32:38.649Z,100469.78
2024-04-22T19:35:08.883Z,100476.50
2024-04-22T19:37:40.604Z,100480.31
2024-04-22T19:40:08.704Z,100479.72
2024-04-22T19:42:38.304Z,100479.63
2024-04-22T19:45:06.474Z,100482.34
2024-04-22T19:47:36.488Z,100478.75
2024-04-22T19:50:04.739Z,100475.47
2024-04-22T19:52:38.697Z,100477.25
2024-04-22T19:55:06.200Z,100479.66
2024-04-22T19:57:35.744Z,100474.72
2024-04-22T20:00:03.182Z,100478.91
2024-04-22T20:02:37.192Z,100478.97
2024-04-22T20:05:05.333Z,100484.25
2024-04-22T20:07:39.599Z,100475.03
2024-04-22T20:10:07.645Z,100473.69
2024-04-22T20:12:37.968Z,100478.44
2024-04-22T20:15:07.843Z,100493.56
2024-04-22T20:18:05.908Z,100484.56
2024-04-22T20:20:36.058Z,100480.13
2024-04-22T20:23:06.281Z,100479.19
2024-04-22T20:25:35.959Z,100480.72
2024-04-22T20:28:03.319Z,100479.03
2024-04-22T20:30:33.019Z,100480.22
2024-04-22T20:33:01.236Z,100488.84
2024-04-22T20:35:30.935Z,100485.56
2024-04-22T20:37:58.213Z,100479.16
2024-04-22T20:40:30.826Z,100464.44
2024-04-22T20:42:58.306Z,100458.94
2024-04-22T20:45:28.440Z,100459.22
2024-04-22T20:47:55.660Z,100447.59
2024-04-22T20:50:26.092Z,100450.44
2024-04-22T20:52:55.292Z,100445.00
2024-04-22T20:55:24.940Z,100436.53
2024-04-22T20:57:56.132Z,100431.75
2024-04-22T21:00:26.126Z,100419.19
2024-04-22T21:02:53.567Z,100426.19
2024-04-22T21:05:23.717Z,100424.81
2024-04-22T21:07:51.091Z,100432.41
2024-04-22T21:10:21.449Z,100428.81
2024-04-22T21:12:48.995Z,100443.25
2024-04-22T21:15:21.926Z,100437.75
2024-04-22T21:17:50.050Z,100423.78
2024-04-22T21:20:19.782Z,100421.22
2024-04-22T21:22:48.784Z,100422.75
2024-04-22T21:25:19.014Z,100407.31
2024-04-22T21:27:47.268Z,100404.25
2024-04-22T21:30:17.151Z,100410.03
2024-04-22T21:33:05.663Z,100419.78
2024-04-22T21:35:42.649Z,100425.69
2024-04-22T21:38:09.832Z,100432.09
2024-04-22T21:40:40.725Z,100426.97
2024-04-22T21:43:08.012Z,100422.69
2024-04-22T21:45:37.838Z,100416.63
2024-04-22T21:48:08.648Z,100425.88
2024-04-22T21:50:38.410Z,100434.31
2024-04-22T21:53:05.813Z,100434.22
2024-04-22T21:56:05.075Z,100438.84
2024-04-22T21:59:10.317Z,100430.50
2024-04-22T22:02:17.589Z,100418.03
2024-04-22T22:05:22.445Z,100412.31
2024-04-22T22:07:52.201Z,100417.28
2024-04-22T22:10:22.983Z,100418.22
2024-04-22T22:12:55.128Z,100426.06
2024-04-22T22:15:22.854Z,100424.69
2024-04-22T22:17:55.220Z,100422.63
2024-04-22T22:20:22.863Z,100427.53
2024-04-22T22:22:52.892Z,100428.16
2024-04-22T22:25:22.903Z,100429.59
2024-04-22T22:27:52.918Z,100431.16
2024-04-22T22:30:20.246Z,100438.91
2024-04-22T22:32:52.836Z,100432.09
2024-04-22T22:35:19.931Z,100434.81
2024-04-22T22:37:49.867Z,100437.53
2024-04-22T22:40:17.510Z,100431.66
2024-04-22T22:42:50.340Z,100438.63
2024-04-22T22:45:17.831Z,100427.63
2024-04-22T22:47:47.658Z,100425.06
2024-04-22T22:50:15.136Z,100430.09
2024-04-22T22:52:45.229Z,100439.03
2024-04-22T22:55:12.719Z,100428.19
2024-04-22T22:57:43.396Z,100432.50
2024-04-22T23:00:14.763Z,100434.47
2024-04-22T23:02:44.586Z,100437.94
2024-04-22T23:05:11.890Z,100424.09
2024-04-22T23:07:41.961Z,100417.91
2024-04-22T23:10:09.878Z,100415.06
2024-04-22T23:12:39.560Z,100414.91
2024-04-22T23:15:07.345Z,100418.94
2024-04-22T23:17:39.762Z,100430.44
2024-04-22T23:20:08.167Z,100420.03
2024-04-22T23:22:38.048Z,100416.38
2024-04-22T23:25:05.908Z,100410.09
2024-04-22T23:27:36.556Z,100410.41
2024-04-22T23:30:04.699Z,100411.66
2024-04-22T23:32:34.570Z,100400.63
2024-04-22T23:35:05.308Z,100408.31
2024-04-22T23:37:37.190Z,100399.66
2024-04-22T23:40:06.713Z,100388.03
2024-04-22T23:42:36.506Z,100384.63
2024-04-22T23:45:04.811Z,100377.09
2024-04-22T23:47:34.779Z,100382.34
2024-04-22T23:50:05.265Z,100378.94
2024-04-22T23:52:35.084Z,100380.00
2024-04-22T23:55:02.244Z,100367.19
2024-04-22T23:57:34.781Z,100369.81
